createdAt,value
2023-04-18T00:00:54.730Z,81.60
2023-04-18T00:02:33.589Z,81.60
2023-04-18T00:04:10.066Z,81.92
2023-04-18T00:05:44.125Z,81.72
2023-04-18T00:07:29.742Z,81.65
2023-04-18T00:09:15.236Z,81.87
2023-04-18T00:11:05.665Z,81.76
2023-04-18T00:12:39.189Z,81.66
2023-04-18T00:14:21.657Z,81.68
2023-04-18T00:15:55.460Z,81.78
2023-04-18T00:17:41.002Z,81.40
2023-04-18T00:19:05.537Z,81.45
2023-04-18T00:20:38.884Z,81.27
2023-04-18T00:22:13.814Z,81.52
2023-04-18T00:23:54.829Z,81.14
2023-04-18T00:25:39.619Z,80.87
2023-04-18T00:27:12.664Z,80.89
2023-04-18T00:28:53.601Z,80.96
2023-04-18T00:30:34.465Z,80.77
2023-04-18T00:32:28.655Z,80.96
2023-04-18T00:34:09.818Z,81.09
2023-04-18T00:35:43.180Z,80.81
2023-04-18T00:37:25.710Z,80.70
2023-04-18T00:39:10.601Z,81.14
2023-04-18T00:40:39.495Z,81.20
2023-04-18T00:42:20.451Z,81.17
2023-04-18T00:43:53.464Z,81.17
2023-04-18T00:45:38.701Z,81.22
2023-04-18T00:47:19.588Z,80.93
2023-04-18T00:49:04.844Z,81.09
2023-04-18T00:50:49.997Z,81.42
2023-04-18T00:52:33.744Z,81.34
2023-04-18T00:54:03.205Z,81.41
2023-04-18T00:55:27.370Z,81.58
2023-04-18T00:57:00.382Z,81.73
2023-04-18T00:58:34.247Z,81.64
2023-04-18T01:00:01.132Z,81.77
2023-04-18T01:01:27.471Z,81.66
2023-04-18T01:02:55.763Z,81.57
2023-04-18T01:04:29.876Z,81.62
2023-04-18T01:06:15.517Z,81.62
2023-04-18T01:08:04.275Z,81.61
2023-04-18T01:09:49.387Z,81.79
2023-04-18T01:11:23.093Z,81.59
2023-04-18T01:12:56.892Z,81.65
2023-04-18T01:14:42.678Z,81.76
2023-04-18T01:16:27.868Z,81.76
2023-04-18T01:18:13.032Z,81.64
2023-04-18T01:19:49.473Z,81.73
2023-04-18T01:21:13.373Z,81.74
2023-04-18T01:22:49.091Z,81.60
2023-04-18T01:24:43.206Z,81.56
2023-04-18T01:26:26.684Z,81.65
2023-04-18T01:28:21.732Z,81.80
2023-04-18T01:30:05.372Z,81.85
2023-04-18T01:31:50.670Z,81.99
2023-04-18T01:33:35.493Z,82.05
2023-04-18T01:35:23.026Z,81.95
2023-04-18T01:37:08.371Z,81.74
2023-04-18T01:38:48.844Z,81.72
2023-04-18T01:40:35.124Z,81.54
2023-04-18T01:42:11.992Z,81.77
2023-04-18T01:43:46.071Z,81.46
2023-04-18T01:45:22.646Z,81.56
2023-04-18T01:47:03.458Z,81.61
2023-04-18T01:48:39.090Z,81.68
2023-04-18T01:50:03.512Z,81.67
2023-04-18T01:51:39.961Z,81.75
2023-04-18T01:53:24.909Z,81.23
2023-04-18T01:55:12.328Z,81.49
2023-04-18T01:56:47.882Z,81.69
2023-04-18T01:58:23.193Z,81.57
2023-04-18T01:59:54.577Z,81.87
2023-04-18T02:01:39.475Z,82.07
2023-04-18T02:03:24.735Z,82.40
2023-04-18T02:05:00.758Z,82.47
2023-04-18T02:06:34.161Z,82.58
2023-04-18T02:08:15.560Z,82.55
2023-04-18T02:09:42.555Z,82.34
2023-04-18T02:11:19.804Z,82.52
2023-04-18T02:12:49.189Z,82.37
2023-04-18T02:14:34.597Z,82.58
2023-04-18T02:16:11.318Z,82.30
2023-04-18T02:17:45.238Z,82.16
2023-04-18T02:19:30.141Z,82.13
2023-04-18T02:21:16.449Z,82.18
2023-04-18T02:22:57.411Z,82.47
2023-04-18T02:24:37.679Z,82.45
2023-04-18T02:26:23.235Z,81.98
2023-04-18T02:27:52.631Z,82.31
2023-04-18T02:29:40.875Z,82.53
2023-04-18T02:31:15.771Z,82.46
2023-04-18T02:32:52.115Z,82.43
2023-04-18T02:34:46.871Z,82.27
2023-04-18T02:36:32.943Z,82.53
2023-04-18T02:37:57.201Z,82.35
2023-04-18T02:39:42.023Z,82.27
2023-04-18T02:41:35.283Z,82.59
2023-04-18T02:43:09.912Z,82.60
2023-04-18T02:44:55.106Z,82.56
2023-04-18T02:46:30.445Z,82.49
2023-04-18T02:48:17.099Z,82.36
2023-04-18T02:49:40.055Z,82.25
2023-04-18T02:51:15.862Z,82.45
2023-04-18T02:52:49.865Z,82.53
2023-04-18T02:54:44.748Z,82.20
2023-04-18T02:56:12.984Z,82.40
2023-04-18T02:58:40.160Z,82.24
2023-04-18T03:00:35.508Z,82.32
2023-04-18T03:02:26.688Z,82.38
2023-04-18T03:03:53.607Z,82.44
2023-04-18T03:05:53.911Z,82.59
2023-04-18T03:07:38.636Z,82.57
2023-04-18T03:09:23.799Z,82.88
2023-04-18T03:11:01.115Z,82.64
2023-04-18T03:12:35.388Z,82.92
2023-04-18T03:14:09.068Z,82.96
2023-04-18T03:16:06.382Z,82.84
2023-04-18T03:17:40.752Z,82.87
2023-04-18T03:19:05.368Z,83.03
2023-04-18T03:20:46.765Z,83.03
2023-04-18T03:22:33.379Z,83.23
2023-04-18T03:23:58.364Z,82.81
2023-04-18T03:25:34.216Z,82.74
2023-04-18T03:27:19.561Z,82.63
2023-04-18T03:29:04.765Z,82.73
2023-04-18T03:30:38.292Z,82.76
2023-04-18T03:32:03.472Z,83.03
2023-04-18T03:33:48.422Z,82.76
2023-04-18T03:35:37.710Z,82.88
2023-04-18T03:37:18.311Z,82.67
2023-04-18T03:39:02.701Z,82.68
2023-04-18T03:40:29.037Z,82.58
2023-04-18T03:42:26.370Z,82.70
2023-04-18T03:44:19.653Z,82.63
2023-04-18T03:46:03.080Z,82.61
2023-04-18T03:47:39.270Z,82.35
2023-04-18T03:49:16.912Z,82.56
2023-04-18T03:50:41.323Z,82.48
2023-04-18T03:52:08.557Z,82.41
2023-04-18T03:53:53.878Z,82.35
2023-04-18T03:55:39.016Z,82.23
2023-04-18T03:57:25.670Z,82.36
2023-04-18T03:59:19.737Z,82.53
2023-04-18T04:01:07.536Z,82.58
2023-04-18T04:02:41.309Z,82.41
2023-04-18T04:04:15.821Z,82.56
2023-04-18T04:06:03.500Z,82.69
2023-04-18T04:07:36.825Z,82.63
2023-04-18T04:09:18.802Z,82.69
2023-04-18T04:11:04.110Z,82.82
2023-04-18T04:12:45.687Z,82.73
2023-04-18T04:14:39.237Z,82.31
2023-04-18T04:16:24.355Z,82.55
2023-04-18T04:18:16.885Z,82.39
2023-04-18T04:20:03.407Z,82.40
2023-04-18T04:21:27.164Z,82.42
2023-04-18T04:23:04.476Z,82.51
2023-04-18T04:24:45.815Z,82.74
2023-04-18T04:26:27.332Z,82.80
2023-04-18T04:27:59.630Z,82.91
2023-04-18T04:29:32.902Z,82.82
2023-04-18T04:31:19.990Z,82.88
2023-04-18T04:32:57.391Z,82.77
2023-04-18T04:34:42.750Z,82.62
2023-04-18T04:36:37.666Z,82.83
2023-04-18T04:38:24.345Z,82.96
2023-04-18T04:40:06.205Z,83.07
2023-04-18T04:41:51.073Z,83.21
2023-04-18T04:43:27.583Z,83.26
2023-04-18T04:45:02.182Z,83.30
2023-04-18T04:46:41.882Z,83.26
2023-04-18T04:48:26.938Z,83.22
2023-04-18T04:50:03.341Z,83.21
2023-04-18T04:51:48.054Z,83.11
2023-04-18T04:53:41.557Z,83.33
2023-04-18T04:55:23.819Z,82.96
2023-04-18T04:56:55.682Z,83.10
2023-04-18T04:58:40.546Z,83.13
2023-04-18T05:00:46.183Z,82.92
2023-04-18T05:02:32.129Z,82.71
2023-04-18T05:04:20.262Z,83.05
2023-04-18T05:06:08.197Z,82.90
2023-04-18T05:07:41.679Z,82.78
2023-04-18T05:09:15.002Z,82.60
2023-04-18T05:10:51.175Z,82.49
2023-04-18T05:12:33.791Z,82.61
2023-04-18T05:14:07.566Z,82.14
2023-04-18T05:15:52.780Z,82.40
2023-04-18T05:17:16.664Z,82.49
2023-04-18T05:18:50.455Z,82.32
2023-04-18T05:20:23.771Z,82.43
2023-04-18T05:21:47.533Z,82.39
2023-04-18T05:23:23.209Z,82.30
2023-04-18T05:24:59.337Z,82.23
2023-04-18T05:26:34.847Z,82.30
2023-04-18T05:28:10.516Z,82.54
2023-04-18T05:29:43.672Z,82.14
2023-04-18T05:31:19.140Z,82.17
2023-04-18T05:33:00.422Z,82.06
2023-04-18T05:34:38.602Z,82.34
2023-04-18T05:36:03.695Z,81.97
2023-04-18T05:37:48.892Z,82.22
2023-04-18T05:39:35.389Z,82.06
2023-04-18T05:41:08.779Z,82.14
2023-04-18T05:42:42.246Z,81.85
2023-04-18T05:44:22.405Z,82.06
2023-04-18T05:45:43.751Z,81.72
2023-04-18T05:47:28.479Z,81.96
2023-04-18T05:49:09.500Z,81.65
2023-04-18T05:50:33.497Z,81.91
2023-04-18T05:52:23.108Z,81.88
2023-04-18T05:53:59.407Z,81.83
2023-04-18T05:55:34.969Z,81.79
2023-04-18T05:57:10.882Z,81.90
2023-04-18T05:58:46.697Z,81.93
2023-04-18T06:00:27.454Z,82.05
2023-04-18T06:02:21.848Z,81.61
2023-04-18T06:03:51.421Z,81.70
2023-04-18T06:05:15.464Z,81.93
2023-04-18T06:07:00.761Z,81.82
2023-04-18T06:08:22.130Z,81.49
2023-04-18T06:10:07.643Z,81.81
2023-04-18T06:11:43.425Z,81.98
2023-04-18T06:13:19.097Z,81.71
2023-04-18T06:14:45.303Z,81.57
2023-04-18T06:16:31.762Z,81.83
2023-04-18T06:18:05.072Z,81.76
2023-04-18T06:19:38.531Z,81.84
2023-04-18T06:21:13.189Z,81.62
2023-04-18T06:23:01.108Z,81.66
2023-04-18T06:24:46.358Z,81.86
2023-04-18T06:26:15.306Z,81.65
2023-04-18T06:28:00.709Z,81.50
2023-04-18T06:29:42.178Z,81.47
2023-04-18T06:31:27.159Z,81.56
2023-04-18T06:33:00.626Z,81.73
2023-04-18T06:34:43.939Z,81.34
2023-04-18T06:36:24.844Z,81.57
2023-04-18T06:38:11.239Z,81.57
2023-04-18T06:40:04.338Z,81.22
2023-04-18T06:41:39.696Z,81.43
2023-04-18T06:43:26.373Z,81.47
2023-04-18T06:45:15.960Z,81.35
2023-04-18T06:46:49.664Z,81.65
2023-04-18T06:48:25.292Z,81.70
2023-04-18T06:49:59.267Z,81.64
2023-04-18T06:51:39.810Z,81.90
2023-04-18T06:53:13.880Z,81.99
2023-04-18T06:54:49.326Z,82.04
2023-04-18T06:56:22.605Z,82.39
2023-04-18T06:57:46.628Z,82.31
2023-04-18T06:59:12.622Z,82.23
2023-04-18T07:00:59.759Z,81.90
2023-04-18T07:02:33.193Z,81.84
2023-04-18T07:04:27.018Z,81.70
2023-04-18T07:06:02.848Z,81.89
2023-04-18T07:07:27.033Z,82.23
2023-04-18T07:09:02.593Z,82.14
2023-04-18T07:10:47.458Z,81.94
2023-04-18T07:12:36.239Z,82.17
2023-04-18T07:14:21.320Z,82.23
2023-04-18T07:16:06.526Z,82.08
2023-04-18T07:17:41.925Z,82.05
2023-04-18T07:19:27.147Z,82.62
2023-04-18T07:21:20.803Z,82.18
2023-04-18T07:22:42.713Z,82.26
2023-04-18T07:24:23.535Z,82.07
2023-04-18T07:26:09.963Z,82.10
2023-04-18T07:27:43.677Z,81.88
2023-04-18T07:29:32.744Z,81.88
2023-04-18T07:31:09.052Z,81.99
2023-04-18T07:32:34.023Z,81.97
2023-04-18T07:34:20.435Z,82.02
2023-04-18T07:35:53.898Z,81.53
2023-04-18T07:37:33.831Z,81.47
2023-04-18T07:39:08.083Z,81.39
2023-04-18T07:40:31.892Z,81.44
2023-04-18T07:42:16.710Z,81.09
2023-04-18T07:44:03.210Z,80.91
2023-04-18T07:45:36.321Z,81.10
2023-04-18T07:47:09.950Z,80.70
2023-04-18T07:48:43.687Z,80.39
2023-04-18T07:50:17.282Z,80.38
2023-04-18T07:51:51.017Z,80.04
2023-04-18T07:53:35.929Z,79.96
2023-04-18T07:55:24.467Z,79.81
2023-04-18T07:56:46.678Z,79.21
2023-04-18T07:58:19.961Z,79.32
2023-04-18T07:59:53.284Z,79.77
2023-04-18T08:01:27.288Z,79.78
2023-04-18T08:03:01.239Z,78.98
2023-04-18T08:04:46.252Z,79.01
2023-04-18T08:06:17.721Z,78.79
2023-04-18T08:07:41.539Z,78.46
2023-04-18T08:09:26.181Z,78.71
2023-04-18T08:11:01.714Z,78.78
2023-04-18T08:12:42.197Z,78.00
2023-04-18T08:14:17.552Z,78.14
2023-04-18T08:16:06.167Z,77.88
2023-04-18T08:17:51.450Z,77.69
2023-04-18T08:19:36.757Z,77.16
2023-04-18T08:21:12.869Z,77.52
2023-04-18T08:23:08.716Z,77.84
2023-04-18T08:25:04.296Z,77.13
2023-04-18T08:26:50.164Z,77.11
2023-04-18T08:28:24.970Z,77.06
2023-04-18T08:29:54.235Z,76.40
2023-04-18T08:31:36.780Z,76.74
2023-04-18T08:33:06.176Z,76.81
2023-04-18T08:34:51.365Z,76.12
2023-04-18T08:36:27.044Z,75.61
2023-04-18T08:38:00.789Z,75.38
2023-04-18T08:39:45.647Z,75.69
2023-04-18T08:41:31.739Z,76.52
2023-04-18T08:43:07.860Z,75.88
2023-04-18T08:44:48.728Z,75.80
2023-04-18T08:46:31.056Z,74.96
2023-04-18T08:48:04.971Z,74.77
2023-04-18T08:49:49.823Z,74.81
2023-04-18T08:51:33.901Z,75.40
2023-04-18T08:53:07.591Z,75.05
2023-04-18T08:54:49.165Z,74.73
2023-04-18T08:56:25.485Z,74.30
2023-04-18T08:58:11.343Z,74.00
2023-04-18T08:59:43.800Z,73.37
2023-04-18T09:01:17.872Z,73.57
2023-04-18T09:03:06.764Z,73.46
2023-04-18T09:04:49.507Z,73.42
2023-04-18T09:06:33.419Z,73.71
2023-04-18T09:08:07.440Z,73.53
2023-04-18T09:09:52.471Z,73.80
2023-04-18T09:11:26.254Z,73.44
2023-04-18T09:12:59.903Z,72.71
2023-04-18T09:14:24.090Z,72.53
2023-04-18T09:15:59.142Z,72.82
2023-04-18T09:17:44.301Z,71.93
2023-04-18T09:19:29.986Z,71.91
2023-04-18T09:21:03.639Z,71.45
2023-04-18T09:22:49.058Z,71.18
2023-04-18T09:24:35.507Z,72.30
2023-04-18T09:25:59.552Z,72.10
2023-04-18T09:27:38.821Z,71.58
2023-04-18T09:29:12.460Z,71.70
2023-04-18T09:30:46.550Z,72.41
2023-04-18T09:32:15.257Z,72.25
2023-04-18T09:33:56.761Z,72.02
2023-04-18T09:35:25.981Z,72.21
2023-04-18T09:36:52.803Z,72.31
2023-04-18T09:38:27.938Z,72.64
2023-04-18T09:40:22.737Z,72.26
2023-04-18T09:41:44.483Z,73.02
2023-04-18T09:43:25.626Z,73.55
2023-04-18T09:45:01.297Z,73.02
2023-04-18T09:46:47.482Z,72.98
2023-04-18T09:50:24.296Z,71.50
2023-04-18T09:51:46.636Z,71.82
2023-04-18T09:53:08.520Z,71.83
2023-04-18T09:54:30.485Z,71.72
2023-04-18T09:55:52.417Z,72.06
2023-04-18T09:57:13.912Z,71.93
2023-04-18T09:58:35.913Z,71.35
2023-04-18T09:59:57.627Z,71.48
2023-04-18T10:01:19.333Z,71.44
2023-04-18T10:02:41.395Z,71.27
2023-04-18T10:04:04.346Z,70.41
2023-04-18T10:05:25.908Z,70.17
2023-04-18T10:06:50.342Z,70.38
2023-04-18T10:08:27.747Z,69.91
2023-04-18T10:09:54.517Z,70.23
2023-04-18T10:11:34.948Z,69.68
2023-04-18T10:13:16.016Z,69.56
2023-04-18T10:14:42.410Z,69.76
2023-04-18T10:16:07.009Z,69.80
2023-04-18T10:18:03.694Z,69.51
2023-04-18T10:19:41.251Z,68.74
2023-04-18T10:21:26.075Z,69.03
2023-04-18T10:22:48.044Z,68.60
2023-04-18T10:24:09.803Z,68.21
2023-04-18T10:25:31.931Z,68.40
2023-04-18T10:26:54.254Z,68.21
2023-04-18T10:28:32.919Z,68.64
2023-04-18T10:30:08.016Z,68.16
2023-04-18T10:31:54.096Z,68.99
2023-04-18T10:33:42.035Z,69.35
2023-04-18T10:35:36.733Z,69.32
2023-04-18T10:37:23.952Z,68.77
2023-04-18T10:39:09.507Z,68.10
2023-04-18T10:40:45.328Z,67.59
2023-04-18T10:42:37.334Z,68.28
2023-04-18T10:43:59.578Z,68.62
2023-04-18T10:45:40.582Z,67.93
2023-04-18T10:47:21.251Z,67.54
2023-04-18T10:48:54.796Z,66.97
2023-04-18T10:50:30.219Z,66.84
2023-04-18T10:52:15.651Z,67.53
2023-04-18T10:54:01.248Z,67.24
2023-04-18T10:55:46.357Z,67.29
2023-04-18T10:57:40.411Z,67.45
2023-04-18T10:59:25.855Z,68.12
2023-04-18T11:01:20.786Z,67.45
2023-04-18T11:02:52.395Z,67.70
2023-04-18T11:04:36.591Z,67.66
2023-04-18T11:06:09.812Z,67.20
2023-04-18T11:07:32.125Z,66.76
2023-04-18T11:09:15.747Z,66.25
2023-04-18T11:11:00.761Z,65.85
2023-04-18T11:12:46.171Z,66.05
2023-04-18T11:14:19.602Z,66.17
2023-04-18T11:16:00.624Z,66.01
2023-04-18T11:17:46.430Z,66.36
2023-04-18T11:19:08.142Z,66.15
2023-04-18T11:20:53.059Z,66.00
2023-04-18T11:22:38.131Z,65.90
2023-04-18T11:24:31.703Z,65.84
2023-04-18T11:26:00.970Z,65.59
2023-04-18T11:27:36.805Z,65.25
2023-04-18T11:29:17.406Z,65.51
2023-04-18T11:31:11.733Z,63.79
2023-04-18T11:32:56.673Z,63.72
2023-04-18T11:34:41.755Z,64.02
2023-04-18T11:36:35.707Z,63.97
2023-04-18T11:38:30.829Z,64.51
2023-04-18T11:40:12.728Z,63.99
2023-04-18T11:41:36.773Z,63.56
2023-04-18T11:43:25.177Z,63.00
2023-04-18T11:45:19.732Z,61.75
2023-04-18T11:47:04.892Z,61.39
2023-04-18T11:48:36.201Z,60.99
2023-04-18T11:50:12.052Z,61.36
2023-04-18T11:51:47.981Z,61.92
2023-04-18T11:53:35.912Z,62.23
2023-04-18T11:55:21.044Z,63.05
2023-04-18T11:56:53.452Z,62.17
2023-04-18T11:58:46.062Z,61.81
2023-04-18T12:00:32.357Z,62.13
2023-04-18T12:02:16.216Z,61.50
2023-04-18T12:03:46.556Z,60.66
2023-04-18T12:05:27.378Z,60.62
2023-04-18T12:07:03.461Z,60.49
2023-04-18T12:08:37.003Z,61.06
2023-04-18T12:09:59.301Z,61.77
2023-04-18T12:11:25.774Z,61.51
2023-04-18T12:13:08.632Z,61.03
2023-04-18T12:15:02.264Z,58.71
2023-04-18T12:16:42.626Z,57.81
2023-04-18T12:18:25.384Z,57.50
2023-04-18T12:19:49.687Z,56.51
2023-04-18T12:21:43.285Z,55.55
2023-04-18T12:23:24.897Z,54.15
2023-04-18T12:24:58.552Z,54.48
2023-04-18T12:26:43.223Z,54.59
2023-04-18T12:28:29.805Z,54.72
2023-04-18T12:30:06.456Z,54.71
2023-04-18T12:31:39.394Z,54.02
2023-04-18T12:33:19.917Z,53.54
2023-04-18T12:34:53.625Z,54.32
2023-04-18T12:36:15.346Z,54.18
2023-04-18T12:37:56.723Z,54.51
2023-04-18T12:39:41.829Z,54.05
2023-04-18T12:41:08.327Z,53.31
2023-04-18T12:42:33.402Z,54.18
2023-04-18T12:44:18.583Z,53.75
2023-04-18T12:46:04.697Z,52.67
2023-04-18T12:47:49.841Z,52.86
2023-04-18T12:49:43.775Z,52.89
2023-04-18T12:51:24.199Z,52.73
2023-04-18T12:52:46.023Z,53.07
2023-04-18T12:54:26.459Z,54.06
2023-04-18T12:56:00.383Z,53.74
2023-04-18T12:57:21.745Z,53.79
2023-04-18T12:58:55.232Z,53.85
2023-04-18T13:00:40.287Z,54.20
2023-04-18T13:02:25.867Z,53.73
2023-04-18T13:03:56.496Z,53.83
2023-04-18T13:05:45.025Z,54.64
2023-04-18T13:07:09.278Z,54.64
2023-04-18T13:08:45.180Z,55.64
2023-04-18T13:10:20.742Z,55.75
2023-04-18T13:11:42.645Z,56.66
2023-04-18T13:13:25.375Z,57.02
2023-04-18T13:14:47.501Z,57.12
2023-04-18T13:16:09.567Z,57.54
2023-04-18T13:17:43.128Z,57.88
2023-04-18T13:19:16.443Z,57.86
2023-04-18T13:21:01.534Z,58.83
2023-04-18T13:22:37.432Z,59.46
2023-04-18T13:24:31.902Z,58.87
2023-04-18T13:26:25.575Z,59.12
2023-04-18T13:27:50.577Z,59.14
2023-04-18T13:29:14.463Z,59.05
2023-04-18T13:31:00.789Z,58.30
2023-04-18T13:32:45.967Z,57.45
2023-04-18T13:34:21.630Z,57.95
2023-04-18T13:36:10.143Z,57.49
2023-04-18T13:37:39.812Z,57.15
2023-04-18T13:39:24.784Z,57.19
2023-04-18T13:41:08.943Z,57.03
2023-04-18T13:42:36.861Z,57.46
2023-04-18T13:44:01.170Z,57.20
2023-04-18T13:45:37.058Z,57.06
2023-04-18T13:47:18.013Z,57.12
2023-04-18T13:48:42.262Z,57.05
2023-04-18T13:50:23.001Z,57.02
2023-04-18T13:51:58.712Z,56.58
2023-04-18T13:53:40.225Z,56.07
2023-04-18T13:55:02.068Z,55.70
2023-04-18T13:56:26.569Z,55.34
2023-04-18T13:58:00.637Z,54.83
2023-04-18T13:59:29.320Z,55.44
2023-04-18T14:01:02.988Z,56.30
2023-04-18T14:02:48.070Z,56.44
2023-04-18T14:04:34.115Z,56.96
2023-04-18T14:05:59.376Z,57.56
2023-04-18T14:07:28.308Z,57.69
2023-04-18T14:08:59.773Z,58.11
2023-04-18T14:10:45.089Z,58.88
2023-04-18T14:12:36.296Z,59.54
2023-04-18T14:14:19.853Z,59.76
2023-04-18T14:15:41.397Z,60.47
2023-04-18T14:17:16.893Z,60.36
2023-04-18T14:19:02.389Z,60.67
2023-04-18T14:20:50.597Z,60.32
2023-04-18T14:22:35.607Z,60.27
2023-04-18T14:24:20.859Z,60.47
2023-04-18T14:26:15.745Z,60.30
2023-04-18T14:28:10.762Z,60.94
2023-04-18T14:29:44.423Z,61.23
2023-04-18T14:31:18.086Z,61.38
2023-04-18T14:32:40.540Z,61.47
2023-04-18T14:34:12.531Z,62.06
2023-04-18T14:35:44.278Z,62.09
2023-04-18T14:37:18.111Z,62.52
2023-04-18T14:39:12.900Z,62.62
2023-04-18T14:40:48.686Z,62.80
2023-04-18T14:42:25.240Z,62.96
2023-04-18T14:44:19.751Z,63.51
2023-04-18T14:46:13.515Z,63.58
2023-04-18T14:47:58.923Z,63.89
2023-04-18T14:49:34.289Z,63.77
2023-04-18T14:51:10.042Z,63.98
2023-04-18T14:52:39.142Z,64.21
2023-04-18T14:54:08.547Z,64.27
2023-04-18T14:55:53.932Z,64.32
2023-04-18T14:57:36.153Z,64.27
2023-04-18T14:59:30.737Z,64.64
2023-04-18T15:01:02.752Z,64.62
2023-04-18T15:02:26.638Z,64.73
2023-04-18T15:04:12.308Z,64.97
2023-04-18T15:05:54.675Z,64.88
2023-04-18T15:07:28.006Z,64.80
2023-04-18T15:08:57.762Z,65.18
2023-04-18T15:10:19.071Z,65.17
2023-04-18T15:12:08.764Z,65.08
2023-04-18T15:13:39.962Z,65.08
2023-04-18T15:15:25.119Z,64.72
2023-04-18T15:17:00.925Z,65.03
2023-04-18T15:18:36.885Z,64.91
2023-04-18T15:20:10.593Z,64.92
2023-04-18T15:21:43.929Z,64.70
2023-04-18T15:23:29.639Z,64.50
2023-04-18T15:25:23.768Z,64.14
2023-04-18T15:27:09.431Z,63.86
2023-04-18T15:28:45.220Z,63.17
2023-04-18T15:30:30.113Z,62.84
2023-04-18T15:32:23.618Z,62.56
2023-04-18T15:33:45.460Z,62.91
2023-04-18T15:35:20.216Z,63.16
2023-04-18T15:36:56.156Z,62.36
2023-04-18T15:38:31.536Z,62.04
2023-04-18T15:40:18.688Z,62.05
2023-04-18T15:42:03.776Z,61.54
2023-04-18T15:43:48.811Z,61.71
2023-04-18T15:45:24.137Z,61.63
2023-04-18T15:47:10.576Z,61.02
2023-04-18T15:48:45.616Z,61.05
2023-04-18T15:50:40.763Z,61.25
2023-04-18T15:52:23.306Z,61.28
2023-04-18T15:54:17.761Z,61.01
2023-04-18T15:56:11.311Z,61.28
2023-04-18T15:57:56.256Z,61.44
2023-04-18T15:59:41.071Z,61.51
2023-04-18T16:01:15.919Z,61.55
2023-04-18T16:02:49.746Z,61.58
2023-04-18T16:04:34.560Z,61.47
2023-04-18T16:06:08.149Z,61.54
2023-04-18T16:08:01.770Z,61.10
2023-04-18T16:09:46.545Z,61.23
2023-04-18T16:11:40.207Z,61.55
2023-04-18T16:13:25.618Z,61.30
2023-04-18T16:15:01.645Z,61.15
2023-04-18T16:16:46.772Z,61.39
2023-04-18T16:18:41.780Z,61.11
2023-04-18T16:20:27.054Z,61.36
2023-04-18T16:22:12.407Z,61.34
2023-04-18T16:23:41.380Z,61.33
2023-04-18T16:25:16.246Z,61.27
2023-04-18T16:27:09.547Z,61.16
2023-04-18T16:28:43.069Z,61.31
2023-04-18T16:30:09.897Z,61.39
2023-04-18T16:31:43.422Z,61.64
2023-04-18T16:33:28.686Z,61.56
2023-04-18T16:35:09.935Z,61.30
2023-04-18T16:36:34.433Z,61.02
2023-04-18T16:38:11.166Z,61.18
2023-04-18T16:39:46.480Z,61.11
2023-04-18T16:41:26.890Z,61.28
2023-04-18T16:43:14.903Z,61.34
2023-04-18T16:44:48.449Z,61.35
2023-04-18T16:46:34.281Z,61.41
2023-04-18T16:47:59.070Z,61.36
2023-04-18T16:49:34.679Z,61.45
2023-04-18T16:51:08.005Z,61.36
2023-04-18T16:52:53.310Z,61.37
2023-04-18T16:54:15.481Z,61.29
2023-04-18T16:55:44.665Z,61.48
2023-04-18T16:57:29.839Z,61.74
2023-04-18T16:59:10.651Z,61.32
2023-04-18T17:00:32.134Z,60.97
2023-04-18T17:02:01.180Z,61.13
2023-04-18T17:03:43.914Z,60.94
2023-04-18T17:05:09.676Z,61.04
2023-04-18T17:06:51.986Z,61.01
2023-04-18T17:08:25.872Z,61.14
2023-04-18T17:09:59.393Z,60.93
2023-04-18T17:11:46.352Z,60.84
2023-04-18T17:13:31.677Z,60.96
2023-04-18T17:15:05.759Z,60.76
2023-04-18T17:16:27.179Z,60.96
2023-04-18T17:18:09.228Z,61.10
2023-04-18T17:19:42.569Z,60.91
2023-04-18T17:21:27.266Z,61.16
2023-04-18T17:22:51.720Z,60.77
2023-04-18T17:24:15.909Z,61.11
2023-04-18T17:25:49.131Z,60.84
2023-04-18T17:27:20.493Z,61.09
2023-04-18T17:28:49.790Z,60.89
2023-04-18T17:30:26.235Z,60.95
2023-04-18T17:31:51.073Z,60.86
2023-04-18T17:33:23.075Z,60.85
2023-04-18T17:35:04.083Z,61.18
2023-04-18T17:36:26.315Z,61.00
2023-04-18T17:37:50.476Z,60.95
2023-04-18T17:39:21.085Z,61.24
2023-04-18T17:41:02.098Z,61.04
2023-04-18T17:42:28.848Z,61.08
2023-04-18T17:44:02.394Z,61.23
2023-04-18T17:45:31.232Z,61.09
2023-04-18T17:47:01.046Z,61.59
2023-04-18T17:48:22.452Z,61.28
2023-04-18T17:50:04.062Z,61.16
2023-04-18T17:51:37.709Z,61.24
2023-04-18T17:53:13.501Z,61.15
2023-04-18T17:54:37.309Z,61.21
2023-04-18T17:56:01.942Z,61.11
2023-04-18T17:57:35.870Z,61.32
2023-04-18T17:59:18.760Z,61.36
2023-04-18T18:03:28.816Z,61.33
2023-04-18T18:04:58.084Z,61.20
2023-04-18T18:06:20.251Z,61.22
2023-04-18T18:07:56.159Z,61.39
2023-04-18T18:09:41.531Z,61.19
2023-04-18T18:11:16.234Z,61.26
2023-04-18T18:12:50.054Z,61.11
2023-04-18T18:14:12.049Z,61.30
2023-04-18T18:15:45.516Z,61.37
2023-04-18T18:17:28.884Z,61.45
2023-04-18T18:18:55.726Z,61.61
2023-04-18T18:20:19.958Z,61.71
2023-04-18T18:22:01.250Z,61.69
2023-04-18T18:23:46.369Z,62.09
2023-04-18T18:25:13.255Z,62.21
2023-04-18T18:26:34.815Z,62.32
2023-04-18T18:28:17.779Z,62.62
2023-04-18T18:29:54.008Z,62.84
2023-04-18T18:31:27.516Z,62.99
2023-04-18T18:32:57.144Z,63.04
2023-04-18T18:34:21.431Z,63.13
2023-04-18T18:36:14.412Z,63.16
2023-04-18T18:37:47.824Z,63.41
2023-04-18T18:39:21.222Z,63.26
2023-04-18T18:41:07.008Z,63.20
2023-04-18T18:42:43.078Z,63.20
2023-04-18T18:44:16.906Z,63.38
2023-04-18T18:45:50.171Z,63.47
2023-04-18T18:47:43.814Z,63.45
2023-04-18T18:49:13.307Z,63.47
2023-04-18T18:50:42.727Z,63.58
2023-04-18T18:52:11.993Z,63.64
2023-04-18T18:53:34.685Z,63.95
2023-04-18T18:55:04.498Z,63.77
2023-04-18T18:56:26.744Z,63.58
2023-04-18T18:58:03.326Z,63.75
2023-04-18T18:59:39.751Z,63.62
2023-04-18T19:01:20.659Z,63.49
2023-04-18T19:02:50.413Z,63.66
2023-04-18T19:04:22.513Z,63.67
2023-04-18T19:06:04.174Z,63.77
2023-04-18T19:07:45.197Z,64.09
2023-04-18T19:09:20.623Z,63.85
2023-04-18T19:10:56.164Z,63.90
2023-04-18T19:12:25.430Z,63.80
2023-04-18T19:13:47.191Z,63.89
2023-04-18T19:15:41.763Z,63.94
2023-04-18T19:17:15.274Z,64.00
2023-04-18T19:18:51.231Z,63.88
2023-04-18T19:20:12.936Z,63.73
2023-04-18T19:21:48.317Z,64.09
2023-04-18T19:23:42.788Z,63.77
2023-04-18T19:25:23.396Z,64.03
2023-04-18T19:26:47.527Z,63.95
2023-04-18T19:28:28.397Z,64.29
2023-04-18T19:30:16.908Z,63.96
2023-04-18T19:31:53.618Z,63.99
2023-04-18T19:33:39.110Z,63.95
2023-04-18T19:35:12.986Z,63.89
2023-04-18T19:37:05.319Z,63.81
2023-04-18T19:38:50.828Z,63.72
2023-04-18T19:40:26.609Z,63.65
2023-04-18T19:41:53.622Z,63.85
2023-04-18T19:43:17.546Z,63.81
2023-04-18T19:44:39.850Z,63.82
2023-04-18T19:46:02.214Z,64.01
2023-04-18T19:47:36.926Z,63.82
2023-04-18T19:49:30.843Z,63.59
2023-04-18T19:50:52.589Z,64.04
2023-04-18T19:55:56.351Z,63.85
2023-04-18T19:57:29.672Z,63.82
2023-04-18T19:58:51.970Z,63.77
2023-04-18T20:00:16.011Z,64.08
2023-04-18T20:01:52.027Z,64.03
2023-04-18T20:03:25.654Z,64.36
2023-04-18T20:04:59.737Z,64.88
2023-04-18T20:06:21.922Z,64.79
2023-04-18T20:07:43.487Z,64.85
2023-04-18T20:09:13.072Z,64.70
2023-04-18T20:10:42.790Z,64.80
2023-04-18T20:12:15.998Z,65.09
2023-04-18T20:13:37.840Z,65.00
2023-04-18T20:15:01.969Z,65.12
2023-04-18T20:16:23.813Z,65.14
2023-04-18T20:17:45.466Z,65.26
2023-04-18T20:19:12.675Z,65.40
2023-04-18T20:20:42.622Z,65.58
2023-04-18T20:22:14.750Z,65.65
2023-04-18T20:23:58.844Z,65.77
2023-04-18T20:25:30.356Z,65.57
2023-04-18T20:27:03.963Z,65.87
2023-04-18T20:28:39.536Z,66.27
2023-04-18T20:30:33.232Z,65.93
2023-04-18T20:32:09.258Z,66.09
2023-04-18T20:33:54.657Z,66.91
2023-04-18T20:35:28.052Z,66.85
2023-04-18T20:36:58.004Z,66.69
2023-04-18T20:38:26.861Z,67.15
2023-04-18T20:40:02.670Z,66.87
2023-04-18T20:41:31.992Z,66.92
2023-04-18T20:43:08.058Z,67.37
2023-04-18T20:44:31.061Z,67.05
2023-04-18T20:45:57.785Z,67.24
2023-04-18T20:47:39.343Z,67.19
2023-04-18T20:49:13.282Z,67.10
2023-04-18T20:50:48.891Z,67.49
2023-04-18T20:52:13.312Z,67.76
2023-04-18T20:53:47.030Z,67.96
2023-04-18T20:55:09.246Z,67.83
2023-04-18T20:56:51.264Z,67.97
2023-04-18T20:58:24.478Z,67.95
2023-04-18T21:00:10.208Z,68.18
2023-04-18T21:01:51.304Z,67.89
2023-04-18T21:03:35.889Z,68.30
2023-04-18T21:05:11.626Z,68.21
2023-04-18T21:06:33.174Z,68.52